createdAt,value
2023-01-27T00:04:07.304Z,-1.39
2023-01-27T00:09:11.414Z,-1.21
2023-01-27T00:14:14.600Z,-1.11
2023-01-27T00:19:19.937Z,-1.14
2023-01-27T00:24:38.592Z,-1.14
2023-01-27T00:29:42.034Z,-1.09
2023-01-27T00:34:46.614Z,-1.19
2023-01-27T00:39:49.957Z,-1.17
2023-01-27T00:45:10.974Z,-1.16
2023-01-27T00:50:16.897Z,-1.03
2023-01-27T00:55:20.908Z,-1.07
2023-01-27T01:00:24.404Z,-0.96
2023-01-27T01:05:29.051Z,-0.88
2023-01-27T01:10:32.404Z,-0.93
2023-01-27T01:15:37.453Z,-1.00
2023-01-27T01:20:46.904Z,-1.05
2023-01-27T01:25:54.840Z,-1.37
2023-01-27T01:30:58.244Z,-1.04
2023-01-27T01:36:07.614Z,-1.22
2023-01-27T01:41:14.587Z,-1.06
2023-01-27T01:46:18.856Z,-0.86
2023-01-27T01:51:27.271Z,-0.91
2023-01-27T01:56:34.692Z,-0.80
2023-01-27T02:01:38.017Z,-0.75
2023-01-27T02:06:50.884Z,-0.69
2023-01-27T02:11:54.554Z,-0.69
2023-01-27T02:16:59.064Z,-0.79
2023-01-27T02:22:08.361Z,-0.67
2023-01-27T02:27:14.405Z,-0.89
2023-01-27T02:32:25.413Z,-0.85
2023-01-27T02:37:32.891Z,-0.82
2023-01-27T02:42:38.547Z,-0.84
2023-01-27T02:47:42.060Z,-0.80
2023-01-27T02:52:46.382Z,-0.77
2023-01-27T02:57:51.329Z,-0.62
2023-01-27T03:03:17.316Z,-0.66
2023-01-27T03:08:20.918Z,-0.58
2023-01-27T03:13:26.323Z,-0.57
2023-01-27T03:18:29.660Z,-0.83
2023-01-27T03:23:34.776Z,-0.60
2023-01-27T03:28:40.299Z,-0.67
2023-01-27T03:33:53.920Z,-0.52
2023-01-27T03:39:19.150Z,-0.42
2023-01-27T03:44:41.311Z,-0.56
2023-01-27T03:49:44.590Z,-0.69
2023-01-27T03:54:48.858Z,-0.50
2023-01-27T03:59:53.501Z,-0.48
2023-01-27T04:05:14.458Z,-0.28
2023-01-27T04:10:18.094Z,-0.26
2023-01-27T04:15:23.026Z,-0.51
2023-01-27T04:20:26.315Z,-0.60
2023-01-27T04:25:29.689Z,-0.63
2023-01-27T04:30:34.299Z,-0.52
2023-01-27T04:35:39.029Z,-0.43
2023-01-27T04:40:43.272Z,-0.47
2023-01-27T04:45:48.056Z,-0.38
2023-01-27T04:50:51.562Z,-0.26
2023-01-27T04:56:01.772Z,-0.48
2023-01-27T05:01:06.285Z,-0.88
2023-01-27T05:06:10.719Z,-0.67
2023-01-27T05:11:14.549Z,-0.58
2023-01-27T05:16:21.063Z,-0.66
2023-01-27T05:21:28.468Z,-0.37
2023-01-27T05:26:31.957Z,-0.26
2023-01-27T05:31:36.847Z,-0.46
2023-01-27T05:36:40.117Z,-0.53
2023-01-27T05:41:43.390Z,-0.40
2023-01-27T05:46:48.171Z,-0.38
2023-01-27T05:51:51.257Z,-0.30
2023-01-27T05:56:55.577Z,-0.62
2023-01-27T06:02:01.124Z,-0.43
2023-01-27T06:07:04.901Z,-0.43
2023-01-27T06:12:08.399Z,-0.34
2023-01-27T06:17:12.976Z,-0.22
2023-01-27T06:22:16.246Z,-0.28
2023-01-27T06:27:19.456Z,-0.24
2023-01-27T06:32:24.294Z,-0.50
2023-01-27T06:37:30.267Z,-0.36
2023-01-27T06:42:33.498Z,-0.59
2023-01-27T06:47:38.168Z,-0.80
2023-01-27T06:52:41.295Z,-0.56
2023-01-27T06:57:44.538Z,-0.45
2023-01-27T07:02:49.203Z,-0.72
2023-01-27T07:07:52.299Z,-0.68
2023-01-27T07:13:05.379Z,-0.88
2023-01-27T07:18:11.926Z,-0.82
2023-01-27T07:23:15.058Z,-0.50
2023-01-27T07:28:18.382Z,-0.85
2023-01-27T07:33:22.853Z,-0.71
2023-01-27T07:38:25.978Z,-0.71
2023-01-27T07:43:29.328Z,-1.00
2023-01-27T07:48:34.285Z,-0.61
2023-01-27T07:53:37.337Z,-0.32
2023-01-27T07:58:40.936Z,-0.46
2023-01-27T08:03:45.491Z,-0.36
2023-01-27T08:08:48.555Z,-0.20
2023-01-27T08:13:51.672Z,-0.61
2023-01-27T08:18:56.713Z,-0.20
2023-01-27T08:24:00.935Z,-0.30
2023-01-27T08:29:04.131Z,-0.29
2023-01-27T08:34:08.985Z,-0.18
2023-01-27T08:39:12.820Z,-0.18
2023-01-27T08:44:16.035Z,-0.31
2023-01-27T08:49:20.591Z,-0.35
2023-01-27T08:54:23.891Z,-0.40
2023-01-27T08:59:27.016Z,-0.44
2023-01-27T09:04:31.762Z,-0.27
2023-01-27T09:09:34.965Z,-0.22
2023-01-27T09:14:38.383Z,-0.20
2023-01-27T09:19:43.061Z,0.05
2023-01-27T09:24:46.322Z,0.16
2023-01-27T09:29:49.463Z,0.15
2023-01-27T09:34:53.934Z,-0.13
2023-01-27T09:40:02.231Z,-0.22
2023-01-27T09:45:29.955Z,0.07
2023-01-27T09:50:44.753Z,0.37
2023-01-27T09:55:56.024Z,0.30
2023-01-27T10:01:07.802Z,0.30
2023-01-27T10:06:39.286Z,0.82
2023-01-27T10:11:54.846Z,-0.05
2023-01-27T10:17:10.352Z,0.47
2023-01-27T10:22:21.435Z,0.53
2023-01-27T10:27:26.732Z,0.80
2023-01-27T10:32:42.113Z,0.71
2023-01-27T10:37:57.397Z,1.21
2023-01-27T10:43:08.948Z,0.67
2023-01-27T10:48:24.642Z,1.29
2023-01-27T10:53:37.437Z,1.11
2023-01-27T10:59:02.926Z,1.26
2023-01-27T11:04:13.767Z,1.33
2023-01-27T11:09:27.036Z,1.53
2023-01-27T11:14:34.498Z,1.57
2023-01-27T11:19:46.103Z,1.32
2023-01-27T11:25:00.192Z,1.53
2023-01-27T11:30:10.660Z,1.44
2023-01-27T11:35:15.411Z,1.24
2023-01-27T11:40:24.561Z,1.00
2023-01-27T11:45:31.833Z,0.96
2023-01-27T11:50:37.286Z,0.67
2023-01-27T11:55:45.163Z,0.68
2023-01-27T12:00:52.991Z,0.83
2023-01-27T12:05:58.344Z,0.55
2023-01-27T12:11:18.733Z,0.60
2023-01-27T12:16:22.933Z,0.66
2023-01-27T12:21:38.066Z,1.01
2023-01-27T12:26:45.971Z,0.89
2023-01-27T12:31:52.136Z,1.44
2023-01-27T12:36:57.668Z,1.38
2023-01-27T12:42:02.178Z,1.35
2023-01-27T12:47:22.276Z,1.75
2023-01-27T12:52:25.459Z,1.22
2023-01-27T12:57:34.191Z,1.28
2023-01-27T13:02:39.417Z,1.60
2023-01-27T13:07:47.635Z,1.12
2023-01-27T13:12:54.203Z,0.82
2023-01-27T13:17:59.168Z,0.98
2023-01-27T13:23:05.467Z,1.24
2023-01-27T13:28:17.117Z,1.62
2023-01-27T13:33:32.487Z,1.77
2023-01-27T13:38:44.189Z,1.85
2023-01-27T13:43:58.519Z,2.06
2023-01-27T13:49:14.577Z,1.70
2023-01-27T13:54:17.798Z,1.48
2023-01-27T13:59:40.286Z,1.72
2023-01-27T14:05:05.153Z,1.70
2023-01-27T14:10:18.101Z,1.52
2023-01-27T14:15:31.514Z,1.52
2023-01-27T14:20:46.699Z,1.81
2023-01-27T14:25:59.692Z,1.69
2023-01-27T14:31:07.927Z,1.54
2023-01-27T14:36:21.368Z,2.04
2023-01-27T14:41:33.332Z,1.32
2023-01-27T14:46:55.408Z,1.49
2023-01-27T14:52:09.884Z,1.50
2023-01-27T14:57:27.003Z,1.41
2023-01-27T15:02:46.582Z,1.58
2023-01-27T15:07:58.930Z,1.05
2023-01-27T15:13:24.734Z,0.96
2023-01-27T15:18:41.913Z,0.89
2023-01-27T15:24:11.862Z,0.73
2023-01-27T15:29:16.687Z,0.55
2023-01-27T15:34:30.030Z,0.74
2023-01-27T15:39:42.320Z,0.62
2023-01-27T15:45:02.081Z,0.83
2023-01-27T15:50:15.759Z,0.62
2023-01-27T15:55:27.203Z,0.68
2023-01-27T16:00:34.614Z,0.67
2023-01-27T16:05:45.422Z,0.36
2023-01-27T16:10:49.098Z,0.35
2023-01-27T16:16:23.734Z,0.71
2023-01-27T16:21:45.153Z,0.65
2023-01-27T16:26:54.134Z,0.81
2023-01-27T16:32:02.353Z,0.55
2023-01-27T16:37:19.083Z,0.65
2023-01-27T16:42:30.045Z,0.57
2023-01-27T16:47:42.763Z,0.50
2023-01-27T16:52:47.541Z,0.34
2023-01-27T16:57:53.380Z,0.49
2023-01-27T17:03:00.321Z,0.44
2023-01-27T17:08:17.103Z,0.37
2023-01-27T17:13:28.759Z,0.56
2023-01-27T17:18:50.851Z,0.58
2023-01-27T17:24:03.116Z,0.65
2023-01-27T17:29:06.851Z,0.59
2023-01-27T17:34:17.422Z,0.64
2023-01-27T17:39:27.571Z,0.64
2023-01-27T17:44:31.052Z,0.55
2023-01-27T17:49:34.456Z,0.47
2023-01-27T17:54:41.695Z,0.64
2023-01-27T17:59:48.249Z,0.60
2023-01-27T18:04:52.650Z,0.68
2023-01-27T18:09:58.305Z,0.73
2023-01-27T18:15:39.121Z,0.83
2023-01-27T18:20:42.451Z,0.57
2023-01-27T18:25:53.815Z,0.83
2023-01-27T18:30:57.147Z,0.96
2023-01-27T18:36:01.952Z,0.81
2023-01-27T18:41:20.038Z,0.78
2023-01-27T18:46:23.602Z,0.91
2023-01-27T18:51:26.980Z,0.77
2023-01-27T18:56:31.580Z,0.92
2023-01-27T19:01:35.930Z,0.89
2023-01-27T19:06:40.115Z,0.87
2023-01-27T19:11:44.662Z,0.93
2023-01-27T19:16:47.907Z,0.82
2023-01-27T19:21:51.648Z,0.75
2023-01-27T19:26:57.092Z,0.92
2023-01-27T19:32:01.180Z,0.80
2023-01-27T19:37:04.650Z,0.87
2023-01-27T19:42:14.682Z,1.00
2023-01-27T19:47:18.464Z,0.88
2023-01-27T19:52:21.871Z,0.64
2023-01-27T19:57:26.539Z,0.73
2023-01-27T20:02:29.850Z,0.49
2023-01-27T20:07:33.010Z,0.50
2023-01-27T20:12:38.680Z,0.47
2023-01-27T20:17:41.769Z,0.39
2023-01-27T20:22:45.279Z,0.40
2023-01-27T20:27:51.914Z,0.35
2023-01-27T20:32:56.486Z,0.48
2023-01-27T20:38:02.119Z,0.49
2023-01-27T20:43:08.686Z,0.57
2023-01-27T20:48:12.759Z,0.67
2023-01-27T20:53:16.191Z,0.53
2023-01-27T20:58:21.363Z,0.57
2023-01-27T21:03:24.809Z,0.52
2023-01-27T21:08:28.231Z,0.39
2023-01-27T21:13:35.444Z,0.55
2023-01-27T21:18:39.915Z,0.55
2023-01-27T21:23:43.081Z,0.48
2023-01-27T21:28:47.924Z,0.39
2023-01-27T21:33:52.022Z,0.27
2023-01-27T21:38:57.359Z,0.35
2023-01-27T21:44:19.830Z,0.39
2023-01-27T21:49:23.698Z,0.12
2023-01-27T21:54:27.534Z,0.49
2023-01-27T21:59:34.341Z,0.38
2023-01-27T22:04:41.206Z,0.44
2023-01-27T22:09:45.219Z,0.61
2023-01-27T22:14:50.069Z,0.43
2023-01-27T22:19:53.435Z,0.41
2023-01-27T22:24:56.646Z,0.23
2023-01-27T22:30:02.016Z,0.38
2023-01-27T22:35:06.311Z,0.33
2023-01-27T22:40:11.153Z,0.37
2023-01-27T22:45:16.559Z,0.41
2023-01-27T22:50:20.935Z,0.34
2023-01-27T22:55:24.280Z,0.43
2023-01-27T23:00:29.053Z,0.18
2023-01-27T23:05:32.524Z,0.20
2023-01-27T23:10:36.101Z,0.24
2023-01-27T23:15:40.719Z,0.55
2023-01-27T23:20:44.201Z,0.56
2023-01-27T23:25:48.873Z,0.30
2023-01-27T23:30:53.942Z,0.01
2023-01-27T23:35:58.428Z,0.31
2023-01-27T23:41:02.758Z,0.30
2023-01-27T23:46:07.704Z,0.17
2023-01-27T23:51:14.413Z,0.10
2023-01-27T23:56:20.227Z,0.05
